Airfield :
LOGIN :

Register | Disclaimer

   EN    FR    IT 

 










Legend :    VFR   Marginal VFR   IFR   Intensive IFR   Very Intensive IFR
Visi :
Ceiling :
>= 8 km
>= 3000ft
5 to 8 km
1000 to 3000 ft
1500m to 5 km
500 to 1000 ft
800 to 1500m
200 to 500 ft
< 800m
< 200 ft
Symbols :   Thunderstorms  Fog  Heavy snow  Heavy precipitations  Wind > 20 kt
SIGMETs :     Misc.  Thunderstorms  Icing  Turbulence  Mountain Waves  Volcanic Ashes







- Airport Elevation : 76 ft
- IATA code : KID


ESMK - Kristianstad

CURRENT METAR :
  • 221120Z 11009KT 9999 FEW013 SCT017 BKN019 08/05 Q1033

EXPIRED METARs :
  • 221050Z 13010KT 9999 SCT017 BKN021 09/05 Q1033
  • 221020Z 13010KT 9999 FEW018 BKN023 10/05 Q1033
  • 220950Z 13006KT 100V170 9999 FEW018 BKN024 10/05 Q1033
  • 220920Z 11008KT 9999 SCT020 10/05 Q1033
  • 220850Z 12004KT 070V160 9999 FEW015 10/05 Q1033

TAF TAF ESMK
Valid from the 22 at 12:00 until the 22 at 21:00 UTC


221110Z 2212/2221 15008KT 9999 SCT015
TEMPO 2212/2218 BKN012
TEMPO 2218/2221 BKN005
No reported NOTAMs for that airfield.



MET'MAP, your aeronautical weather chart ! - Copyright ORBIFLY December 2007 - Disclaimer

ORBIFLY MET'MAP TEAM :

Programming & Development : Alexandra Zaïnal
Concept & Development : Baudouin d'Aumeries
Co-Development & Prog : Marc-Olivier Méhu
Technical & hardware support : Manuel Goepfert

Contact : metmap@orbifly.com




SOURCES & CREDITS :

   NOAA